sensor_id;sensor_type;location;lat;lon;timestamp;pressure;altitude;pressure_sealevel;temperature;humidity
19447;BME280;9862;49.462;11.054;2023-05-21T00:00:41;97775.25;;;20.27;100.00
19447;BME280;9862;49.462;11.054;2023-05-21T00:03:07;97772.78;;;20.30;100.00
19447;BME280;9862;49.462;11.054;2023-05-21T00:05:38;97776.06;;;20.27;100.00
19447;BME280;9862;49.462;11.054;2023-05-21T00:08:04;97771.72;;;20.26;100.00
19447;BME280;9862;49.462;11.054;2023-05-21T00:10:31;97774.13;;;20.33;100.00
19447;BME280;9862;49.462;11.054;2023-05-21T00:12:59;97760.66;;;20.28;100.00
19447;BME280;9862;49.462;11.054;2023-05-21T00:15:25;97755.25;;;20.28;100.00
19447;BME280;9862;49.462;11.054;2023-05-21T00:17:52;97764.44;;;20.27;100.00
19447;BME280;9862;49.462;11.054;2023-05-21T00:20:19;97763.88;;;20.30;100.00
19447;BME280;9862;49.462;11.054;2023-05-21T00:22:46;97756.06;;;20.28;100.00
19447;BME280;9862;49.462;11.054;2023-05-21T00:25:12;97754.69;;;20.26;100.00
19447;BME280;9862;49.462;11.054;2023-05-21T00:27:39;97759.56;;;20.29;100.00
19447;BME280;9862;49.462;11.054;2023-05-21T00:30:07;97758.22;;;20.26;100.00
19447;BME280;9862;49.462;11.054;2023-05-21T00:32:34;97755.53;;;20.21;100.00
19447;BME280;9862;49.462;11.054;2023-05-21T00:35:01;97745.53;;;20.22;100.00
19447;BME280;9862;49.462;11.054;2023-05-21T00:37:28;97744.50;;;20.18;100.00
19447;BME280;9862;49.462;11.054;2023-05-21T00:39:58;97735.28;;;20.19;100.00
19447;BME280;9862;49.462;11.054;2023-05-21T00:42:25;97741.78;;;20.18;100.00
19447;BME280;9862;49.462;11.054;2023-05-21T00:44:52;97737.97;;;20.24;100.00
19447;BME280;9862;49.462;11.054;2023-05-21T00:47:20;97739.56;;;20.25;100.00
19447;BME280;9862;49.462;11.054;2023-05-21T00:49:47;97733.69;;;20.18;100.00
19447;BME280;9862;49.462;11.054;2023-05-21T00:52:15;97732.59;;;20.19;100.00
19447;BME280;9862;49.462;11.054;2023-05-21T00:54:45;97736.09;;;20.19;100.00
19447;BME280;9862;49.462;11.054;2023-05-21T00:57:12;97744.75;;;20.16;100.00
19447;BME280;9862;49.462;11.054;2023-05-21T00:59:39;97732.59;;;20.14;100.00
19447;BME280;9862;49.462;11.054;2023-05-21T01:02:06;97735.59;;;20.12;100.00
19447;BME280;9862;49.462;11.054;2023-05-21T01:04:35;97735.06;;;20.10;100.00
19447;BME280;9862;49.462;11.054;2023-05-21T01:07:01;97735.03;;;20.15;100.00
19447;BME280;9862;49.462;11.054;2023-05-21T01:09:28;97733.16;;;20.11;100.00
19447;BME280;9862;49.462;11.054;2023-05-21T01:11:55;97733.72;;;20.08;100.00
19447;BME280;9862;49.462;11.054;2023-05-21T01:14:22;97732.38;;;20.05;100.00
19447;BME280;9862;49.462;11.054;2023-05-21T01:16:49;97737.50;;;20.07;100.00
19447;BME280;9862;49.462;11.054;2023-05-21T01:19:19;97736.69;;;20.06;100.00
19447;BME280;9862;49.462;11.054;2023-05-21T01:21:49;97734.03;;;20.01;100.00
19447;BME280;9862;49.462;11.054;2023-05-21T01:24:18;97728.91;;;19.99;100.00
19447;BME280;9862;49.462;11.054;2023-05-21T01:26:45;97729.13;;;20.03;100.00
19447;BME280;9862;49.462;11.054;2023-05-21T01:29:12;97735.38;;;19.98;100.00
19447;BME280;9862;49.462;11.054;2023-05-21T01:31:49;97728.09;;;19.94;100.00
19447;BME280;9862;49.462;11.054;2023-05-21T01:34:21;97740.78;;;19.93;100.00
19447;BME280;9862;49.462;11.054;2023-05-21T01:36:54;97734.03;;;19.96;100.00
19447;BME280;9862;49.462;11.054;2023-05-21T01:39:26;97737.56;;;19.91;100.00
19447;BME280;9862;49.462;11.054;2023-05-21T01:41:55;97722.97;;;19.87;100.00
19447;BME280;9862;49.462;11.054;2023-05-21T01:44:23;97727.84;;;19.85;100.00
19447;BME280;9862;49.462;11.054;2023-05-21T01:46:52;97731.09;;;19.87;100.00
19447;BME280;9862;49.462;11.054;2023-05-21T01:49:19;97729.47;;;19.91;100.00
19447;BME280;9862;49.462;11.054;2023-05-21T01:51:47;97730.84;;;19.84;100.00
19447;BME280;9862;49.462;11.054;2023-05-21T01:54:14;97728.66;;;19.86;100.00
19447;BME280;9862;49.462;11.054;2023-05-21T01:56:42;97730.88;;;19.79;100.00
19447;BME280;9862;49.462;11.054;2023-05-21T01:59:09;97729.53;;;19.71;100.00
19447;BME280;9862;49.462;11.054;2023-05-21T02:01:35;97727.13;;;19.69;100.00
19447;BME280;9862;49.462;11.054;2023-05-21T02:04:02;97730.06;;;19.68;100.00
19447;BME280;9862;49.462;11.054;2023-05-21T02:06:29;97732.00;;;19.62;100.00
19447;BME280;9862;49.462;11.054;2023-05-21T02:08:57;97721.97;;;19.68;100.00
19447;BME280;9862;49.462;11.054;2023-05-21T02:11:25;97724.16;;;19.61;100.00
19447;BME280;9862;49.462;11.054;2023-05-21T02:13:55;97724.97;;;19.61;100.00
19447;BME280;9862;49.462;11.054;2023-05-21T02:16:22;97728.75;;;19.60;100.00
19447;BME280;9862;49.462;11.054;2023-05-21T02:18:49;97730.34;;;19.66;100.00
19447;BME280;9862;49.462;11.054;2023-05-21T02:21:17;97726.88;;;19.56;100.00
19447;BME280;9862;49.462;11.054;2023-05-21T02:23:45;97723.91;;;19.57;100.00
19447;BME280;9862;49.462;11.054;2023-05-21T02:26:11;97718.22;;;19.54;100.00
19447;BME280;9862;49.462;11.054;2023-05-21T02:28:38;97720.91;;;19.49;100.00
19447;BME280;9862;49.462;11.054;2023-05-21T02:31:06;97723.88;;;19.47;100.00
19447;BME280;9862;49.462;11.054;2023-05-21T02:33:32;97717.97;;;19.50;100.00
19447;BME280;9862;49.462;11.054;2023-05-21T02:35:59;97714.97;;;19.47;100.00
19447;BME280;9862;49.462;11.054;2023-05-21T02:38:28;97712.84;;;19.43;100.00
19447;BME280;9862;49.462;11.054;2023-05-21T02:40:56;97709.06;;;19.44;100.00
19447;BME280;9862;49.462;11.054;2023-05-21T02:43:23;97710.38;;;19.47;100.00
19447;BME280;9862;49.462;11.054;2023-05-21T02:45:50;97716.06;;;19.45;100.00
19447;BME280;9862;49.462;11.054;2023-05-21T02:48:18;97712.56;;;19.50;100.00
19447;BME280;9862;49.462;11.054;2023-05-21T02:50:44;97706.59;;;19.53;100.00
19447;BME280;9862;49.462;11.054;2023-05-21T02:53:11;97707.69;;;19.47;100.00
19447;BME280;9862;49.462;11.054;2023-05-21T02:55:37;97712.31;;;19.41;100.00
19447;BME280;9862;49.462;11.054;2023-05-21T02:58:04;97713.38;;;19.35;100.00
19447;BME280;9862;49.462;11.054;2023-05-21T03:00:30;97713.13;;;19.32;100.00
19447;BME280;9862;49.462;11.054;2023-05-21T03:02:57;97713.94;;;19.27;100.00
19447;BME280;9862;49.462;11.054;2023-05-21T03:05:26;97710.72;;;19.25;100.00
19447;BME280;9862;49.462;11.054;2023-05-21T03:07:52;97714.47;;;19.29;100.00
19447;BME280;9862;49.462;11.054;2023-05-21T03:10:19;97713.97;;;19.22;100.00
19447;BME280;9862;49.462;11.054;2023-05-21T03:12:45;97714.22;;;19.26;100.00
19447;BME280;9862;49.462;11.054;2023-05-21T03:15:12;97710.72;;;19.30;100.00
19447;BME280;9862;49.462;11.054;2023-05-21T03:17:39;97719.09;;;19.24;100.00
19447;BME280;9862;49.462;11.054;2023-05-21T03:20:09;97719.34;;;19.17;100.00
19447;BME280;9862;49.462;11.054;2023-05-21T03:22:41;97711.78;;;19.19;100.00
19447;BME280;9862;49.462;11.054;2023-05-21T03:25:09;97719.06;;;19.19;100.00
19447;BME280;9862;49.462;11.054;2023-05-21T03:27:35;97722.56;;;19.19;100.00
19447;BME280;9862;49.462;11.054;2023-05-21T03:30:02;97718.78;;;19.20;100.00
19447;BME280;9862;49.462;11.054;2023-05-21T03:32:29;97721.25;;;19.22;100.00
19447;BME280;9862;49.462;11.054;2023-05-21T03:34:58;97725.28;;;19.19;100.00
19447;BME280;9862;49.462;11.054;2023-05-21T03:37:24;97724.50;;;19.13;100.00
19447;BME280;9862;49.462;11.054;2023-05-21T03:39:52;97723.41;;;19.09;100.00
19447;BME280;9862;49.462;11.054;2023-05-21T03:42:19;97716.13;;;19.15;100.00
19447;BME280;9862;49.462;11.054;2023-05-21T03:44:45;97719.09;;;19.13;100.00
19447;BME280;9862;49.462;11.054;2023-05-21T03:47:12;97717.19;;;19.14;100.00
19447;BME280;9862;49.462;11.054;2023-05-21T03:49:38;97724.75;;;19.07;100.00
19447;BME280;9862;49.462;11.054;2023-05-21T03:52:05;97723.66;;;19.08;100.00
19447;BME280;9862;49.462;11.054;2023-05-21T03:54:32;97719.63;;;19.10;100.00
19447;BME280;9862;49.462;11.054;2023-05-21T03:56:59;97727.72;;;19.10;100.00
19447;BME280;9862;49.462;11.054;2023-05-21T03:59:26;97724.19;;;19.10;100.00
19447;BME280;9862;49.462;11.054;2023-05-21T04:01:52;97732.84;;;19.12;100.00
19447;BME280;9862;49.462;11.054;2023-05-21T04:04:19;97720.97;;;19.08;100.00
19447;BME280;9862;49.462;11.054;2023-05-21T04:06:46;97726.38;;;19.08;100.00
19447;BME280;9862;49.462;11.054;2023-05-21T04:09:12;97736.88;;;19.09;100.00
19447;BME280;9862;49.462;11.054;2023-05-21T04:11:39;97732.84;;;19.07;100.00
19447;BME280;9862;49.462;11.054;2023-05-21T04:14:07;97721.50;;;19.10;100.00
19447;BME280;9862;49.462;11.054;2023-05-21T04:16:33;97735.28;;;19.13;100.00
19447;BME280;9862;49.462;11.054;2023-05-21T04:19:02;97740.13;;;19.06;100.00
19447;BME280;9862;49.462;11.054;2023-05-21T04:21:29;97729.34;;;19.06;100.00
19447;BME280;9862;49.462;11.054;2023-05-21T04:23:56;97732.88;;;19.02;100.00
19447;BME280;9862;49.462;11.054;2023-05-21T04:26:24;97730.69;;;19.04;100.00
19447;BME280;9862;49.462;11.054;2023-05-21T04:28:52;97740.97;;;19.02;100.00
19447;BME280;9862;49.462;11.054;2023-05-21T04:31:21;97730.97;;;19.02;100.00
19447;BME280;9862;49.462;11.054;2023-05-21T04:33:47;97734.19;;;19.09;100.00
19447;BME280;9862;49.462;11.054;2023-05-21T04:36:15;97738.25;;;19.12;100.00
19447;BME280;9862;49.462;11.054;2023-05-21T04:38:42;97739.31;;;19.06;100.00
19447;BME280;9862;49.462;11.054;2023-05-21T04:41:08;97746.88;;;19.14;100.00
19447;BME280;9862;49.462;11.054;2023-05-21T04:43:36;97746.34;;;19.07;100.00
19447;BME280;9862;49.462;11.054;2023-05-21T04:46:08;97746.06;;;19.08;100.00
19447;BME280;9862;49.462;11.054;2023-05-21T04:48:36;97745.53;;;19.06;100.00
19447;BME280;9862;49.462;11.054;2023-05-21T04:51:02;97750.66;;;19.13;100.00
19447;BME280;9862;49.462;11.054;2023-05-21T04:53:30;97744.47;;;19.12;100.00
19447;BME280;9862;49.462;11.054;2023-05-21T04:55:58;97742.53;;;19.18;100.00
19447;BME280;9862;49.462;11.054;2023-05-21T04:58:24;97745.78;;;19.20;100.00
19447;BME280;9862;49.462;11.054;2023-05-21T05:00:52;97746.63;;;19.21;100.00
19447;BME280;9862;49.462;11.054;2023-05-21T05:03:18;97757.13;;;19.27;100.00
19447;BME280;9862;49.462;11.054;2023-05-21T05:05:46;97748.47;;;19.25;100.00
19447;BME280;9862;49.462;11.054;2023-05-21T05:08:13;97746.06;;;19.24;100.00
19447;BME280;9862;49.462;11.054;2023-05-21T05:10:40;97742.00;;;19.26;100.00
19447;BME280;9862;49.462;11.054;2023-05-21T05:13:07;97748.47;;;19.40;100.00
19447;BME280;9862;49.462;11.054;2023-05-21T05:15:34;97753.06;;;19.30;100.00
19447;BME280;9862;49.462;11.054;2023-05-21T05:18:00;97751.19;;;19.30;100.00
19447;BME280;9862;49.462;11.054;2023-05-21T05:20:27;97752.25;;;19.29;100.00
19447;BME280;9862;49.462;11.054;2023-05-21T05:22:55;97757.13;;;19.27;100.00
19447;BME280;9862;49.462;11.054;2023-05-21T05:25:21;97755.50;;;19.26;100.00
19447;BME280;9862;49.462;11.054;2023-05-21T05:27:48;97752.25;;;19.34;100.00
19447;BME280;9862;49.462;11.054;2023-05-21T05:30:14;97752.81;;;19.31;100.00
19447;BME280;9862;49.462;11.054;2023-05-21T05:32:41;97751.69;;;19.37;100.00
19447;BME280;9862;49.462;11.054;2023-05-21T05:35:08;97754.13;;;19.44;100.00
19447;BME280;9862;49.462;11.054;2023-05-21T05:37:35;97757.88;;;19.48;100.00
19447;BME280;9862;49.462;11.054;2023-05-21T05:40:04;97751.16;;;19.51;100.00
19447;BME280;9862;49.462;11.054;2023-05-21T05:42:31;97743.31;;;19.54;100.00
19447;BME280;9862;49.462;11.054;2023-05-21T05:44:57;97747.63;;;19.55;100.00
19447;BME280;9862;49.462;11.054;2023-05-21T05:47:24;97748.47;;;19.56;100.00
19447;BME280;9862;49.462;11.054;2023-05-21T05:49:50;97747.63;;;19.55;100.00
19447;BME280;9862;49.462;11.054;2023-05-21T05:52:17;97754.41;;;19.58;100.00
19447;BME280;9862;49.462;11.054;2023-05-21T05:54:43;97752.22;;;19.65;100.00
19447;BME280;9862;49.462;11.054;2023-05-21T05:57:11;97753.84;;;19.66;100.00
19447;BME280;9862;49.462;11.054;2023-05-21T05:59:38;97750.59;;;19.74;100.00
19447;BME280;9862;49.462;11.054;2023-05-21T06:02:05;97745.19;;;19.74;100.00
19447;BME280;9862;49.462;11.054;2023-05-21T06:04:32;97742.47;;;19.79;100.00
19447;BME280;9862;49.462;11.054;2023-05-21T06:06:58;97738.13;;;19.83;100.00
19447;BME280;9862;49.462;11.054;2023-05-21T06:09:25;97737.03;;;19.89;100.00
19447;BME280;9862;49.462;11.054;2023-05-21T06:11:52;97741.63;;;19.89;100.00
19447;BME280;9862;49.462;11.054;2023-05-21T06:14:20;97734.88;;;19.91;100.00
19447;BME280;9862;49.462;11.054;2023-05-21T06:16:46;97732.41;;;20.00;100.00
19447;BME280;9862;49.462;11.054;2023-05-21T06:19:13;97741.84;;;20.08;100.00
19447;BME280;9862;49.462;11.054;2023-05-21T06:21:39;97734.22;;;20.15;100.00
19447;BME280;9862;49.462;11.054;2023-05-21T06:24:06;97741.50;;;20.19;100.00
19447;BME280;9862;49.462;11.054;2023-05-21T06:26:33;97739.56;;;20.25;100.00
19447;BME280;9862;49.462;11.054;2023-05-21T06:28:59;97741.69;;;20.33;100.00
19447;BME280;9862;49.462;11.054;2023-05-21T06:31:28;97730.31;;;20.36;100.00
19447;BME280;9862;49.462;11.054;2023-05-21T06:33:57;97733.56;;;20.43;100.00
19447;BME280;9862;49.462;11.054;2023-05-21T06:36:24;97743.28;;;20.44;100.00
19447;BME280;9862;49.462;11.054;2023-05-21T06:38:54;97731.94;;;20.47;100.00
19447;BME280;9862;49.462;11.054;2023-05-21T06:41:20;97734.06;;;20.50;100.00
19447;BME280;9862;49.462;11.054;2023-05-21T06:43:47;97732.44;;;20.49;100.00
19447;BME280;9862;49.462;11.054;2023-05-21T06:46:13;97728.09;;;20.53;100.00
19447;BME280;9862;49.462;11.054;2023-05-21T06:48:43;97724.28;;;20.54;100.00
19447;BME280;9862;49.462;11.054;2023-05-21T06:51:10;97740.56;;;20.49;100.00
19447;BME280;9862;49.462;11.054;2023-05-21T06:53:36;97724.78;;;20.67;100.00
19447;BME280;9862;49.462;11.054;2023-05-21T06:56:03;97731.53;;;20.64;100.00
19447;BME280;9862;49.462;11.054;2023-05-21T06:58:30;97732.59;;;20.68;100.00
19447;BME280;9862;49.462;11.054;2023-05-21T07:00:57;97722.81;;;20.72;100.00
19447;BME280;9862;49.462;11.054;2023-05-21T07:03:24;97734.94;;;20.80;100.00
19447;BME280;9862;49.462;11.054;2023-05-21T07:05:52;97733.03;;;20.85;100.00
19447;BME280;9862;49.462;11.054;2023-05-21T07:08:19;97728.88;;;20.93;100.00
19447;BME280;9862;49.462;11.054;2023-05-21T07:10:46;97727.25;;;20.97;100.00
19447;BME280;9862;49.462;11.054;2023-05-21T07:13:12;97737.69;;;21.09;100.00
19447;BME280;9862;49.462;11.054;2023-05-21T07:15:39;97730.91;;;21.11;100.00
19447;BME280;9862;49.462;11.054;2023-05-21T07:18:05;97734.16;;;21.13;100.00
19447;BME280;9862;49.462;11.054;2023-05-21T07:20:32;97726.56;;;21.15;100.00
19447;BME280;9862;49.462;11.054;2023-05-21T07:23:00;97735.75;;;21.14;100.00
19447;BME280;9862;49.462;11.054;2023-05-21T07:25:26;97727.59;;;21.20;100.00
19447;BME280;9862;49.462;11.054;2023-05-21T07:27:53;97730.22;;;21.30;100.00
19447;BME280;9862;49.462;11.054;2023-05-21T07:30:20;97727.41;;;21.40;100.00
19447;BME280;9862;49.462;11.054;2023-05-21T07:32:46;97733.13;;;21.38;100.00
19447;BME280;9862;49.462;11.054;2023-05-21T07:35:13;97730.91;;;21.46;100.00
19447;BME280;9862;49.462;11.054;2023-05-21T07:37:39;97723.06;;;21.44;100.00
19447;BME280;9862;49.462;11.054;2023-05-21T07:40:08;97727.38;;;21.45;100.00
19447;BME280;9862;49.462;11.054;2023-05-21T07:42:35;97724.84;;;21.54;100.00
19447;BME280;9862;49.462;11.054;2023-05-21T07:45:02;97726.47;;;21.55;100.00
19447;BME280;9862;49.462;11.054;2023-05-21T07:47:29;97724.47;;;21.65;100.00
19447;BME280;9862;49.462;11.054;2023-05-21T07:49:55;97730.47;;;21.62;100.00
19447;BME280;9862;49.462;11.054;2023-05-21T07:52:23;97721.75;;;21.65;100.00
19447;BME280;9862;49.462;11.054;2023-05-21T07:54:49;97727.69;;;21.67;100.00
19447;BME280;9862;49.462;11.054;2023-05-21T07:57:17;97729.25;;;21.74;100.00
19447;BME280;9862;49.462;11.054;2023-05-21T07:59:44;97735.75;;;21.73;100.00
19447;BME280;9862;49.462;11.054;2023-05-21T08:02:10;97726.41;;;21.84;100.00
19447;BME280;9862;49.462;11.054;2023-05-21T08:04:37;97723.63;;;21.89;100.00
19447;BME280;9862;49.462;11.054;2023-05-21T08:07:03;97728.50;;;21.92;100.00
19447;BME280;9862;49.462;11.054;2023-05-21T08:09:30;97721.09;;;21.97;100.00
19447;BME280;9862;49.462;11.054;2023-05-21T08:11:57;97720.75;;;22.04;100.00
19447;BME280;9862;49.462;11.054;2023-05-21T08:14:25;97712.56;;;22.09;100.00
19447;BME280;9862;49.462;11.054;2023-05-21T08:16:51;97721.25;;;22.11;100.00
19447;BME280;9862;49.462;11.054;2023-05-21T08:19:18;97713.53;;;22.18;100.00
19447;BME280;9862;49.462;11.054;2023-05-21T08:21:44;97722.72;;;22.22;100.00
19447;BME280;9862;49.462;11.054;2023-05-21T08:24:11;97718.09;;;22.23;100.00
19447;BME280;9862;49.462;11.054;2023-05-21T08:26:38;97717.50;;;22.26;100.00
19447;BME280;9862;49.462;11.054;2023-05-21T08:29:04;97712.38;;;22.24;100.00
19447;BME280;9862;49.462;11.054;2023-05-21T08:31:32;97710.13;;;22.32;100.00
19447;BME280;9862;49.462;11.054;2023-05-21T08:33:59;97714.94;;;22.35;100.00
19447;BME280;9862;49.462;11.054;2023-05-21T08:36:26;97705.50;;;22.32;100.00
19447;BME280;9862;49.462;11.054;2023-05-21T08:38:52;97722.50;;;22.38;100.00
19447;BME280;9862;49.462;11.054;2023-05-21T08:41:20;97713.56;;;22.37;100.00
19447;BME280;9862;49.462;11.054;2023-05-21T08:43:53;97709.84;;;22.52;100.00
19447;BME280;9862;49.462;11.054;2023-05-21T08:46:22;97703.44;;;22.43;100.00
19447;BME280;9862;49.462;11.054;2023-05-21T08:48:50;97713.84;;;22.54;100.00
19447;BME280;9862;49.462;11.054;2023-05-21T08:51:19;97713.84;;;22.54;100.00
19447;BME280;9862;49.462;11.054;2023-05-21T08:53:46;97711.88;;;22.60;100.00
19447;BME280;9862;49.462;11.054;2023-05-21T08:56:15;97713.50;;;22.61;100.00
19447;BME280;9862;49.462;11.054;2023-05-21T08:58:44;97718.41;;;22.59;100.00
19447;BME280;9862;49.462;11.054;2023-05-21T09:01:11;97708.50;;;22.68;100.00
19447;BME280;9862;49.462;11.054;2023-05-21T09:03:39;97709.53;;;22.72;100.00
19447;BME280;9862;49.462;11.054;2023-05-21T09:06:09;97717.28;;;22.79;100.00
19447;BME280;9862;49.462;11.054;2023-05-21T09:08:37;97706.94;;;22.81;100.00
19447;BME280;9862;49.462;11.054;2023-05-21T09:11:08;97705.28;;;22.85;100.00
19447;BME280;9862;49.462;11.054;2023-05-21T09:13:36;97707.69;;;22.87;100.00
19447;BME280;9862;49.462;11.054;2023-05-21T09:16:04;97705.91;;;22.96;100.00
19447;BME280;9862;49.462;11.054;2023-05-21T09:18:31;97704.81;;;22.97;100.00
19447;BME280;9862;49.462;11.054;2023-05-21T09:21:23;97704.84;;;23.10;100.00
19447;BME280;9862;49.462;11.054;2023-05-21T09:23:53;97714.25;;;23.32;100.00
19447;BME280;9862;49.462;11.054;2023-05-21T09:26:20;97713.56;;;23.26;100.00
19447;BME280;9862;49.462;11.054;2023-05-21T09:28:47;97707.03;;;23.27;100.00
19447;BME280;9862;49.462;11.054;2023-05-21T09:31:14;97711.13;;;23.25;100.00
19447;BME280;9862;49.462;11.054;2023-05-21T09:33:44;97709.50;;;23.24;100.00
19447;BME280;9862;49.462;11.054;2023-05-21T09:36:11;97706.09;;;23.32;100.00
19447;BME280;9862;49.462;11.054;2023-05-21T09:38:39;97709.56;;;23.37;100.00
19447;BME280;9862;49.462;11.054;2023-05-21T09:41:06;97718.19;;;23.39;100.00
19447;BME280;9862;49.462;11.054;2023-05-21T09:43:32;97712.75;;;23.39;100.00
19447;BME280;9862;49.462;11.054;2023-05-21T09:45:59;97707.94;;;23.36;100.00
19447;BME280;9862;49.462;11.054;2023-05-21T09:48:33;97707.94;;;23.36;100.00
19447;BME280;9862;49.462;11.054;2023-05-21T09:51:08;97711.97;;;23.39;100.00
19447;BME280;9862;49.462;11.054;2023-05-21T09:53:35;97706.91;;;23.32;100.00
19447;BME280;9862;49.462;11.054;2023-05-21T09:56:04;97706.22;;;23.40;100.00
19447;BME280;9862;49.462;11.054;2023-05-21T09:58:31;97709.13;;;23.44;100.00
19447;BME280;9862;49.462;11.054;2023-05-21T10:00:59;97700.19;;;23.43;100.00
19447;BME280;9862;49.462;11.054;2023-05-21T10:03:26;97707.66;;;23.52;100.00
19447;BME280;9862;49.462;11.054;2023-05-21T10:05:54;97706.53;;;23.53;100.00
19447;BME280;9862;49.462;11.054;2023-05-21T10:08:21;97706.94;;;23.46;100.00
19447;BME280;9862;49.462;11.054;2023-05-21T10:10:50;97707.16;;;23.50;100.00
19447;BME280;9862;49.462;11.054;2023-05-21T10:13:21;97704.50;;;23.45;100.00
19447;BME280;9862;49.462;11.054;2023-05-21T10:15:54;97710.47;;;23.47;100.00
19447;BME280;9862;49.462;11.054;2023-05-21T10:18:22;97703.94;;;23.48;100.00
19447;BME280;9862;49.462;11.054;2023-05-21T10:20:50;97698.50;;;23.48;100.00
19447;BME280;9862;49.462;11.054;2023-05-21T10:23:19;97699.00;;;23.50;100.00
19447;BME280;9862;49.462;11.054;2023-05-21T10:25:46;97704.19;;;23.65;100.00
19447;BME280;9862;49.462;11.054;2023-05-21T10:28:15;97696.69;;;23.57;100.00
19447;BME280;9862;49.462;11.054;2023-05-21T10:30:44;97698.31;;;23.72;100.00
19447;BME280;9862;49.462;11.054;2023-05-21T10:33:12;97691.28;;;23.70;100.00
19447;BME280;9862;49.462;11.054;2023-05-21T10:35:41;97693.31;;;23.65;100.00
19447;BME280;9862;49.462;11.054;2023-05-21T10:38:08;97699.56;;;23.65;100.00
19447;BME280;9862;49.462;11.054;2023-05-21T10:40:35;97696.94;;;23.74;100.00
19447;BME280;9862;49.462;11.054;2023-05-21T10:43:24;97693.13;;;23.75;100.00
19447;BME280;9862;49.462;11.054;2023-05-21T10:46:22;97682.03;;;23.85;100.00
19447;BME280;9862;49.462;11.054;2023-05-21T10:48:59;97691.50;;;23.88;100.00
19447;BME280;9862;49.462;11.054;2023-05-21T10:51:38;97690.78;;;23.82;100.00
19447;BME280;9862;49.462;11.054;2023-05-21T10:54:47;97688.84;;;23.83;100.00
19447;BME280;9862;49.462;11.054;2023-05-21T11:00:15;97676.88;;;23.97;100.00
19447;BME280;9862;49.462;11.054;2023-05-21T11:02:46;97677.38;;;23.99;100.00
19447;BME280;9862;49.462;11.054;2023-05-21T11:05:16;97673.53;;;24.01;100.00
19447;BME280;9862;49.462;11.054;2023-05-21T11:07:53;97670.72;;;24.06;100.00
19447;BME280;9862;49.462;11.054;2023-05-21T11:10:35;97664.66;;;24.09;100.00
19447;BME280;9862;49.462;11.054;2023-05-21T11:13:21;97666.66;;;24.17;100.00
19447;BME280;9862;49.462;11.054;2023-05-21T11:16:05;97659.88;;;24.28;100.00
19447;BME280;9862;49.462;11.054;2023-05-21T11:19:01;97661.50;;;24.43;100.00
19447;BME280;9862;49.462;11.054;2023-05-21T11:21:29;97652.91;;;24.72;100.00
19447;BME280;9862;49.462;11.054;2023-05-21T11:24:05;97654.25;;;24.61;100.00
19447;BME280;9862;49.462;11.054;2023-05-21T11:27:00;97654.25;;;24.61;98.37
19447;BME280;9862;49.462;11.054;2023-05-21T11:29:46;97651.00;;;24.72;84.93
19447;BME280;9862;49.462;11.054;2023-05-21T11:32:13;97644.13;;;24.75;82.74
19447;BME280;9862;49.462;11.054;2023-05-21T11:34:46;97647.22;;;24.82;80.58
19447;BME280;9862;49.462;11.054;2023-05-21T11:37:26;97651.56;;;24.83;80.93
19447;BME280;9862;49.462;11.054;2023-05-21T11:39:55;97649.19;;;24.90;78.77
19447;BME280;9862;49.462;11.054;2023-05-21T11:42:32;97650.66;;;24.96;78.62
19447;BME280;9862;49.462;11.054;2023-05-21T11:45:00;97648.66;;;25.02;78.30
19447;BME280;9862;49.462;11.054;2023-05-21T11:47:27;97642.75;;;25.08;77.88
19447;BME280;9862;49.462;11.054;2023-05-21T11:49:57;97644.72;;;25.17;76.68
19447;BME280;9862;49.462;11.054;2023-05-21T11:52:24;97651.16;;;25.21;75.92
19447;BME280;9862;49.462;11.054;2023-05-21T11:54:51;97637.38;;;25.26;72.88
19447;BME280;9862;49.462;11.054;2023-05-21T11:57:20;97633.25;;;25.37;72.71
19447;BME280;9862;49.462;11.054;2023-05-21T11:59:48;97636.31;;;25.35;72.56
19447;BME280;9862;49.462;11.054;2023-05-21T12:02:16;97638.72;;;25.37;72.48
19447;BME280;9862;49.462;11.054;2023-05-21T12:04:43;97639.72;;;25.41;74.78
19447;BME280;9862;49.462;11.054;2023-05-21T12:07:13;97629.16;;;25.48;73.73
19447;BME280;9862;49.462;11.054;2023-05-21T12:09:40;97635.59;;;25.52;75.67
19447;BME280;9862;49.462;11.054;2023-05-21T12:12:08;97630.63;;;25.63;76.51
19447;BME280;9862;49.462;11.054;2023-05-21T12:14:36;97632.13;;;25.69;75.70
19447;BME280;9862;49.462;11.054;2023-05-21T12:17:03;97634.56;;;25.71;72.20
19447;BME280;9862;49.462;11.054;2023-05-21T12:19:31;97626.53;;;25.74;65.38
19447;BME280;9862;49.462;11.054;2023-05-21T12:22:00;97640.47;;;25.73;65.68
19447;BME280;9862;49.462;11.054;2023-05-21T12:24:29;97631.31;;;25.68;67.51
19447;BME280;9862;49.462;11.054;2023-05-21T12:26:56;97638.03;;;25.62;68.19
19447;BME280;9862;49.462;11.054;2023-05-21T12:29:24;97641.69;;;25.66;66.99
19447;BME280;9862;49.462;11.054;2023-05-21T12:31:51;97639.31;;;25.65;67.16
19447;BME280;9862;49.462;11.054;2023-05-21T12:34:36;97629.56;;;25.73;63.79
19447;BME280;9862;49.462;11.054;2023-05-21T12:37:03;97636.16;;;25.72;64.57
19447;BME280;9862;49.462;11.054;2023-05-21T12:39:32;97633.47;;;25.89;64.74
19447;BME280;9862;49.462;11.054;2023-05-21T12:42:00;97631.56;;;25.98;60.55
19447;BME280;9862;49.462;11.054;2023-05-21T12:44:29;97632.84;;;26.09;57.54
19447;BME280;9862;49.462;11.054;2023-05-21T12:46:56;97632.69;;;26.14;57.77
19447;BME280;9862;49.462;11.054;2023-05-21T12:49:30;97631.88;;;26.05;58.19
19447;BME280;9862;49.462;11.054;2023-05-21T12:51:57;97627.41;;;26.09;56.38
19447;BME280;9862;49.462;11.054;2023-05-21T12:54:27;97632.53;;;26.19;56.57
19447;BME280;9862;49.462;11.054;2023-05-21T12:56:55;97634.63;;;26.14;57.50
19447;BME280;9862;49.462;11.054;2023-05-21T12:59:22;97634.94;;;26.21;59.20